createdAt,value
2024-04-11T00:00:56.333Z,100580.63
2024-04-11T00:01:58.322Z,100575.06
2024-04-11T00:03:00.474Z,100575.25
2024-04-11T00:04:02.979Z,100576.25
2024-04-11T00:05:05.522Z,100575.41
2024-04-11T00:06:08.976Z,100577.41
2024-04-11T00:07:10.823Z,100575.41
2024-04-11T00:08:12.824Z,100581.75
2024-04-11T00:09:14.726Z,100589.00
2024-04-11T00:10:16.703Z,100569.31
2024-04-11T00:11:20.017Z,100589.00
2024-04-11T00:12:22.322Z,100588.16
2024-04-11T00:13:24.206Z,100583.78
2024-04-11T00:14:26.105Z,100591.88
2024-04-11T00:15:28.202Z,100588.34
2024-04-11T00:16:30.322Z,100586.16
2024-04-11T00:17:32.519Z,100593.41
2024-04-11T00:18:34.655Z,100590.38
2024-04-11T00:19:39.135Z,100603.63
2024-04-11T00:20:41.188Z,100588.50
2024-04-11T00:21:43.054Z,100601.97
2024-04-11T00:22:47.995Z,100597.59
2024-04-11T00:23:49.917Z,100599.28
2024-04-11T00:24:52.478Z,100600.28
2024-04-11T00:25:58.934Z,100595.91
2024-04-11T00:27:01.243Z,100608.19
2024-04-11T00:28:03.180Z,100604.53
2024-04-11T00:29:11.454Z,100598.13
2024-04-11T00:30:13.442Z,100598.13
2024-04-11T00:31:16.356Z,100606.69
2024-04-11T00:32:18.223Z,100593.94
2024-04-11T00:33:20.760Z,100613.06
2024-04-11T00:34:32.926Z,100617.63
2024-04-11T00:35:36.557Z,100621.81
2024-04-11T00:36:41.588Z,100614.75
2024-04-11T00:37:44.445Z,100605.69
2024-04-11T00:38:46.381Z,100609.22
2024-04-11T00:39:48.314Z,100622.16
2024-04-11T00:40:57.692Z,100619.66
2024-04-11T00:41:59.643Z,100623.00
2024-04-11T00:43:01.541Z,100627.53
2024-04-11T00:44:04.009Z,100618.81
2024-04-11T00:45:08.479Z,100625.53
2024-04-11T00:46:11.309Z,100627.22
2024-04-11T00:47:13.371Z,100621.19
2024-04-11T00:48:19.608Z,100633.28
2024-04-11T00:49:22.635Z,100634.13
2024-04-11T00:50:24.573Z,100637.97
2024-04-11T00:51:26.516Z,100638.66
2024-04-11T00:52:29.865Z,100653.09
2024-04-11T00:53:31.873Z,100639.53
2024-04-11T00:54:33.999Z,100642.19
2024-04-11T00:55:39.264Z,100655.97
2024-04-11T00:56:41.947Z,100658.50
2024-04-11T00:57:44.413Z,100650.91
2024-04-11T00:58:46.282Z,100665.56
2024-04-11T00:59:49.995Z,100668.25
2024-04-11T01:00:53.696Z,100668.41
2024-04-11T01:01:56.319Z,100672.81
2024-04-11T01:02:58.250Z,100682.53
2024-04-11T01:04:01.670Z,100667.91
2024-04-11T01:05:05.182Z,100683.56
2024-04-11T01:06:07.170Z,100672.94
2024-04-11T01:07:11.728Z,100679.34
2024-04-11T01:08:13.884Z,100688.94
2024-04-11T01:09:20.949Z,100683.56
2024-04-11T01:10:23.499Z,100684.06
2024-04-11T01:11:25.490Z,100691.94
2024-04-11T01:12:27.520Z,100698.84
2024-04-11T01:13:30.483Z,100696.16
2024-04-11T01:14:32.780Z,100694.47
2024-04-11T01:15:38.946Z,100707.94
2024-04-11T01:16:40.982Z,100696.84
2024-04-11T01:17:45.596Z,100697.66
2024-04-11T01:18:48.230Z,100707.59
2024-04-11T01:19:50.150Z,100705.09
2024-04-11T01:20:53.396Z,100702.38
2024-04-11T01:21:56.969Z,100707.25
2024-04-11T01:22:58.800Z,100697.50
2024-04-11T01:24:01.059Z,100695.16
2024-04-11T01:25:03.251Z,100707.06
2024-04-11T01:26:07.170Z,100705.75
2024-04-11T01:27:10.709Z,100708.09
2024-04-11T01:28:12.651Z,100710.63
2024-04-11T01:29:15.067Z,100710.97
2024-04-11T01:30:17.816Z,100716.00
2024-04-11T01:31:20.191Z,100715.16
2024-04-11T01:32:22.187Z,100709.63
2024-04-11T01:33:24.776Z,100700.53
2024-04-11T01:34:26.948Z,100716.00
2024-04-11T01:35:32.445Z,100700.03
2024-04-11T01:36:34.975Z,100708.94
2024-04-11T01:37:37.138Z,100698.69
2024-04-11T01:38:39.023Z,100726.75
2024-04-11T01:39:41.111Z,100705.06
2024-04-11T01:40:49.051Z,100707.94
2024-04-11T01:41:51.613Z,100723.91
2024-04-11T01:42:53.532Z,100719.69
2024-04-11T01:43:56.098Z,100707.44
2024-04-11T01:44:59.659Z,100711.31
2024-04-11T01:46:01.650Z,100718.84
2024-04-11T01:47:04.289Z,100718.84
2024-04-11T01:48:06.891Z,100714.31
2024-04-11T01:49:08.897Z,100706.59
2024-04-11T01:50:10.721Z,100715.47
2024-04-11T01:51:13.595Z,100715.69
2024-04-11T01:52:15.684Z,100697.88
2024-04-11T01:53:17.530Z,100717.69
2024-04-11T01:54:19.352Z,100726.09
2024-04-11T01:55:21.327Z,100728.78
2024-04-11T01:56:25.573Z,100725.25
2024-04-11T01:57:30.801Z,100725.75
2024-04-11T01:58:32.947Z,100728.78
2024-04-11T01:59:35.102Z,100729.78
2024-04-11T02:00:37.966Z,100721.72
2024-04-11T02:01:40.184Z,100727.09
2024-04-11T02:02:50.204Z,100720.88
2024-04-11T02:03:55.323Z,100723.41
2024-04-11T02:04:57.526Z,100725.09
2024-04-11T02:06:05.354Z,100712.66
2024-04-11T02:07:07.327Z,100714.31
2024-04-11T02:08:09.775Z,100710.78
2024-04-11T02:09:13.485Z,100721.72
2024-04-11T02:10:16.684Z,100714.16
2024-04-11T02:11:18.593Z,100702.72
2024-04-11T02:12:20.599Z,100718.72
2024-04-11T02:13:22.612Z,100717.69
2024-04-11T02:14:24.583Z,100716.34
2024-04-11T02:15:26.583Z,100727.59
2024-04-11T02:16:38.166Z,100736.34
2024-04-11T02:17:40.543Z,100738.88
2024-04-11T02:18:42.594Z,100727.78
2024-04-11T02:19:46.507Z,100745.25
2024-04-11T02:20:49.290Z,100740.91
2024-04-11T02:21:52.516Z,100739.03
2024-04-11T02:22:55.299Z,100738.22
2024-04-11T02:23:57.303Z,100738.22
2024-04-11T02:24:59.275Z,100728.47
2024-04-11T02:26:01.113Z,100728.13
2024-04-11T02:27:04.685Z,100733.50
2024-04-11T02:28:07.419Z,100731.16
2024-04-11T02:29:09.692Z,100732.16
2024-04-11T02:30:12.121Z,100720.22
2024-04-11T02:31:14.036Z,100736.53
2024-04-11T02:32:15.861Z,100732.16
2024-04-11T02:33:17.813Z,100733.16
2024-04-11T02:34:19.973Z,100732.16
2024-04-11T02:35:22.050Z,100737.03
2024-04-11T02:36:24.001Z,100727.78
2024-04-11T02:37:25.824Z,100726.09
2024-04-11T02:38:27.747Z,100737.69
2024-04-11T02:39:29.793Z,100744.94
2024-04-11T02:40:31.631Z,100748.13
2024-04-11T02:41:33.552Z,100762.91
2024-04-11T02:42:38.876Z,100770.16
2024-04-11T02:43:41.597Z,100763.75
2024-04-11T02:44:43.699Z,100769.97
2024-04-11T02:45:49.559Z,100773.66
2024-04-11T02:46:51.458Z,100767.47
2024-04-11T02:47:53.550Z,100762.44
2024-04-11T02:48:56.528Z,100761.75
2024-04-11T02:49:58.405Z,100773.53
2024-04-11T02:51:00.323Z,100762.44
2024-04-11T02:52:03.233Z,100772.50
2024-04-11T02:53:05.248Z,100763.59
2024-04-11T02:54:07.653Z,100769.47
2024-04-11T02:55:09.686Z,100778.72
2024-04-11T02:56:12.914Z,100783.25
2024-04-11T02:57:14.959Z,100782.41
2024-04-11T02:58:17.407Z,100773.84
2024-04-11T02:59:19.305Z,100789.47
2024-04-11T03:00:21.150Z,100794.50
2024-04-11T03:01:23.292Z,100785.28
2024-04-11T03:02:25.368Z,100802.09
2024-04-11T03:03:27.410Z,100794.69
2024-04-11T03:04:30.241Z,100807.81
2024-04-11T03:05:32.677Z,100803.44
2024-04-11T03:06:34.526Z,100791.50
2024-04-11T03:07:36.613Z,100796.19
2024-04-11T03:08:41.059Z,100798.22
2024-04-11T03:09:43.228Z,100791.34
2024-04-11T03:10:45.070Z,100810.31
2024-04-11T03:11:47.044Z,100807.81
2024-04-11T03:12:49.588Z,100806.13
2024-04-11T03:13:59.125Z,100811.31
2024-04-11T03:15:01.470Z,100821.75
2024-04-11T03:16:04.471Z,100809.81
2024-04-11T03:17:06.415Z,100805.28
2024-04-11T03:18:08.478Z,100810.66
2024-04-11T03:19:10.499Z,100817.72
2024-04-11T03:20:12.853Z,100816.88
2024-04-11T03:21:14.785Z,100828.47
2024-04-11T03:22:16.690Z,100827.13
2024-04-11T03:23:18.604Z,100834.72
2024-04-11T03:24:20.612Z,100833.84
2024-04-11T03:25:22.475Z,100825.44
2024-04-11T03:26:24.407Z,100833.03
2024-04-11T03:27:26.361Z,100820.06
2024-04-11T03:28:28.344Z,100830.34
2024-04-11T03:29:30.869Z,100825.97
2024-04-11T03:30:32.774Z,100821.94
2024-04-11T03:31:35.155Z,100833.84
2024-04-11T03:32:38.067Z,100833.03
2024-04-11T03:33:41.038Z,100830.00
2024-04-11T03:34:43.060Z,100835.72
2024-04-11T03:35:57.986Z,100840.09
2024-04-11T03:37:00.059Z,100834.53
2024-04-11T03:38:01.892Z,100837.22
2024-04-11T03:39:12.695Z,100834.53
2024-04-11T03:40:14.670Z,100834.38
2024-04-11T03:41:18.292Z,100832.19
2024-04-11T03:42:20.253Z,100828.47
2024-04-11T03:43:23.460Z,100823.78
2024-04-11T03:44:25.338Z,100826.31
2024-04-11T03:45:28.213Z,100832.03
2024-04-11T03:46:30.061Z,100833.03
2024-04-11T03:47:33.842Z,100823.63
2024-04-11T03:48:36.852Z,100834.88
2024-04-11T03:49:39.252Z,100831.69
2024-04-11T03:50:41.183Z,100841.25
2024-04-11T03:51:46.155Z,100835.06
2024-04-11T03:52:48.132Z,100822.94
2024-04-11T03:53:58.090Z,100829.66
2024-04-11T03:55:00.067Z,100814.00
2024-04-11T03:56:04.656Z,100821.41
2024-04-11T03:57:08.553Z,100823.28
2024-04-11T03:58:11.330Z,100824.97
2024-04-11T03:59:13.304Z,100811.19
2024-04-11T04:00:15.274Z,100825.97
2024-04-11T04:01:17.677Z,100833.72
2024-04-11T04:02:19.699Z,100830.00
2024-04-11T04:03:21.856Z,100838.06
2024-04-11T04:04:24.738Z,100828.00
2024-04-11T04:05:27.430Z,100828.00
2024-04-11T04:06:30.192Z,100827.13
2024-04-11T04:07:33.431Z,100835.06
2024-04-11T04:08:37.571Z,100837.75
2024-04-11T04:09:39.496Z,100832.03
2024-04-11T04:10:41.704Z,100841.09
2024-04-11T04:11:43.807Z,100844.13
2024-04-11T04:12:45.909Z,100849.50
2024-04-11T04:13:48.952Z,100854.88
2024-04-11T04:14:50.864Z,100841.78
2024-04-11T04:15:55.125Z,100822.41
2024-04-11T04:16:57.064Z,100850.19
2024-04-11T04:17:59.065Z,100850.19
2024-04-11T04:19:00.988Z,100855.56
2024-04-11T04:20:05.039Z,100851.19
2024-04-11T04:21:09.065Z,100852.34
2024-04-11T04:22:14.936Z,100854.56
2024-04-11T04:23:17.017Z,100852.88
2024-04-11T04:24:19.097Z,100862.44
2024-04-11T04:25:21.532Z,100859.94
2024-04-11T04:26:27.718Z,100853.88
2024-04-11T04:27:29.903Z,100855.56
2024-04-11T04:28:34.111Z,100856.22
2024-04-11T04:29:39.283Z,100830.16
2024-04-11T04:30:46.302Z,100848.50
2024-04-11T04:31:50.563Z,100856.72
2024-04-11T04:32:53.125Z,100855.91
2024-04-11T04:33:57.053Z,100859.59
2024-04-11T04:34:58.962Z,100826.66
2024-04-11T04:36:01.194Z,100858.59
2024-04-11T04:37:03.085Z,100856.56
2024-04-11T04:38:05.150Z,100859.59
2024-04-11T04:39:08.150Z,100853.34
2024-04-11T04:40:12.135Z,100842.44
2024-04-11T04:41:14.649Z,100864.97
2024-04-11T04:42:16.553Z,100862.28
2024-04-11T04:43:18.417Z,100856.91
2024-04-11T04:44:23.924Z,100857.91
2024-04-11T04:45:25.911Z,100847.97
2024-04-11T04:46:33.674Z,100847.97
2024-04-11T04:47:36.654Z,100850.53
2024-04-11T04:48:39.112Z,100848.16
2024-04-11T04:49:43.008Z,100850.19
2024-04-11T04:50:46.067Z,100855.38
2024-04-11T04:51:48.820Z,100860.41
2024-04-11T04:52:52.043Z,100854.72
2024-04-11T04:53:54.541Z,100863.97
2024-04-11T04:54:56.753Z,100858.25
2024-04-11T04:55:58.578Z,100860.41
2024-04-11T04:57:00.520Z,100859.94
2024-04-11T04:58:02.528Z,100869.50
2024-04-11T04:59:04.513Z,100867.66
2024-04-11T05:00:14.960Z,100871.38
2024-04-11T05:01:17.259Z,100850.00
2024-04-11T05:02:19.245Z,100862.97
2024-04-11T05:03:21.310Z,100860.75
2024-04-11T05:04:23.458Z,100865.13
2024-04-11T05:05:26.559Z,100860.41
2024-04-11T05:06:30.619Z,100864.78
2024-04-11T05:07:32.573Z,100853.88
2024-04-11T05:08:35.137Z,100866.66
2024-04-11T05:09:37.197Z,100875.41
2024-04-11T05:10:39.383Z,100858.94
2024-04-11T05:11:42.180Z,100864.66
2024-04-11T05:12:45.014Z,100862.81
2024-04-11T05:13:49.619Z,100859.25
2024-04-11T05:14:54.119Z,100864.50
2024-04-11T05:16:08.163Z,100866.31
2024-04-11T05:17:10.109Z,100856.09
2024-04-11T05:18:12.056Z,100850.84
2024-04-11T05:19:17.735Z,100850.66
2024-04-11T05:20:26.142Z,100862.47
2024-04-11T05:21:28.677Z,100866.84
2024-04-11T05:22:30.547Z,100863.28
2024-04-11T05:23:35.272Z,100861.63
2024-04-11T05:24:37.215Z,100865.16
2024-04-11T05:25:40.989Z,100854.75
2024-04-11T05:26:42.942Z,100847.81
2024-04-11T05:27:45.091Z,100851.53
2024-04-11T05:28:47.977Z,100856.22
2024-04-11T05:29:49.842Z,100857.91
2024-04-11T05:30:51.908Z,100839.75
2024-04-11T05:31:57.907Z,100843.78
2024-04-11T05:33:01.178Z,100860.59
2024-04-11T05:34:10.389Z,100846.31
2024-04-11T05:35:13.132Z,100843.63
2024-04-11T05:36:19.381Z,100840.75
2024-04-11T05:37:21.351Z,100834.72
2024-04-11T05:38:23.223Z,100838.06
2024-04-11T05:39:25.227Z,100838.41
2024-04-11T05:40:29.190Z,100843.44
2024-04-11T05:41:31.053Z,100825.16
2024-04-11T05:42:33.955Z,100837.25
2024-04-11T05:43:45.562Z,100828.66
2024-04-11T05:44:47.773Z,100835.03
2024-04-11T05:45:49.660Z,100841.44
2024-04-11T05:46:51.597Z,100837.91
2024-04-11T05:47:53.664Z,100837.06
2024-04-11T05:48:56.507Z,100837.06
2024-04-11T05:49:58.667Z,100841.63
2024-04-11T05:51:00.631Z,100836.56
2024-04-11T05:52:03.524Z,100843.13
2024-04-11T05:53:07.783Z,100851.72
2024-04-11T05:54:11.649Z,100854.06
2024-04-11T05:55:14.325Z,100850.50
2024-04-11T05:56:16.742Z,100833.69
2024-04-11T05:57:19.007Z,100849.50
2024-04-11T05:58:20.860Z,100843.63
2024-04-11T05:59:23.627Z,100849.50
2024-04-11T06:00:30.636Z,100848.50
2024-04-11T06:01:36.960Z,100853.72
2024-04-11T06:02:41.528Z,100851.84
2024-04-11T06:03:48.205Z,100853.88
2024-04-11T06:04:50.403Z,100853.41
2024-04-11T06:05:53.160Z,100850.38
2024-04-11T06:06:55.103Z,100847.81
2024-04-11T06:07:58.275Z,100846.16
2024-04-11T06:09:02.288Z,100848.16
2024-04-11T06:10:06.098Z,100851.19
2024-04-11T06:11:08.286Z,100856.13
2024-04-11T06:12:12.275Z,100855.25
2024-04-11T06:13:14.225Z,100851.19
2024-04-11T06:14:16.142Z,100848.50
2024-04-11T06:15:21.056Z,100856.22
2024-04-11T06:16:23.054Z,100852.56
2024-04-11T06:17:24.980Z,100848.50
2024-04-11T06:18:30.000Z,100851.56
2024-04-11T06:19:32.029Z,100851.72
2024-04-11T06:20:33.932Z,100855.94
2024-04-11T06:21:38.046Z,100859.28
2024-04-11T06:22:41.139Z,100859.28
2024-04-11T06:23:42.979Z,100856.78
2024-04-11T06:24:44.918Z,100846.84
2024-04-11T06:25:47.834Z,100848.72
2024-04-11T06:26:51.740Z,100851.56
2024-04-11T06:27:53.762Z,100853.09
2024-04-11T06:28:57.796Z,100840.78
2024-04-11T06:30:00.405Z,100837.41
2024-04-11T06:31:02.548Z,100845.84
2024-04-11T06:32:14.248Z,100838.97
2024-04-11T06:33:19.586Z,100843.81
2024-04-11T06:34:22.015Z,100841.13
2024-04-11T06:35:26.121Z,100839.78
2024-04-11T06:36:28.155Z,100832.88
2024-04-11T06:37:29.977Z,100837.75
2024-04-11T06:38:32.563Z,100841.31
2024-04-11T06:39:37.132Z,100832.38
2024-04-11T06:40:39.419Z,100824.78
2024-04-11T06:41:41.387Z,100831.72
2024-04-11T06:42:51.244Z,100839.63
2024-04-11T06:43:55.335Z,100837.41
2024-04-11T06:44:59.503Z,100839.28
2024-04-11T06:46:01.778Z,100841.13
2024-04-11T06:47:04.860Z,100850.19
2024-04-11T06:48:08.222Z,100835.72
2024-04-11T06:49:11.144Z,100849.38
2024-04-11T06:50:13.143Z,100849.38
2024-04-11T06:51:17.363Z,100843.31
2024-04-11T06:52:19.211Z,100841.66
2024-04-11T06:53:21.890Z,100848.53
2024-04-11T06:54:27.493Z,100846.84
2024-04-11T06:55:31.878Z,100843.47
2024-04-11T06:56:33.944Z,100843.13
2024-04-11T06:57:42.167Z,100848.53
2024-04-11T06:58:45.832Z,100843.81
2024-04-11T06:59:51.470Z,100841.97
2024-04-11T07:01:01.200Z,100845.69
2024-04-11T07:02:08.432Z,100841.81
2024-04-11T07:03:22.929Z,100829.88
2024-04-11T07:04:25.248Z,100831.72
2024-04-11T07:05:27.233Z,100824.66
2024-04-11T07:06:31.362Z,100837.41
2024-04-11T07:07:36.807Z,100833.03
2024-04-11T07:08:39.959Z,100829.53
2024-04-11T07:09:44.299Z,100830.34
2024-04-11T07:10:47.826Z,100828.69
2024-04-11T07:11:50.607Z,100825.81
2024-04-11T07:13:01.152Z,100814.88
2024-04-11T07:14:11.453Z,100827.50
2024-04-11T07:15:13.980Z,100828.19
2024-04-11T07:16:18.188Z,100827.66
2024-04-11T07:17:20.279Z,100830.34
2024-04-11T07:18:23.862Z,100829.34
2024-04-11T07:19:25.790Z,100833.75
2024-04-11T07:20:32.710Z,100824.16
2024-04-11T07:21:36.401Z,100821.28
2024-04-11T07:22:45.607Z,100833.75
2024-04-11T07:23:55.341Z,100825.50
2024-04-11T07:24:57.277Z,100831.53
2024-04-11T07:25:59.207Z,100834.41
2024-04-11T07:27:02.067Z,100833.03
2024-04-11T07:28:08.142Z,100836.44
2024-04-11T07:29:11.447Z,100841.63
2024-04-11T07:30:13.433Z,100835.75
2024-04-11T07:31:18.707Z,100831.88
2024-04-11T07:32:22.629Z,100839.81
2024-04-11T07:33:24.722Z,100823.28
2024-04-11T07:34:29.855Z,100824.97
2024-04-11T07:35:34.828Z,100823.28
2024-04-11T07:36:41.812Z,100827.50
2024-04-11T07:37:44.233Z,100821.28
2024-04-11T07:38:46.110Z,100816.91
2024-04-11T07:39:48.043Z,100820.97
2024-04-11T07:40:55.828Z,100818.44
2024-04-11T07:42:20.327Z,100827.00
2024-04-11T07:43:26.134Z,100822.97
2024-04-11T07:44:28.129Z,100812.53
2024-04-11T07:45:32.227Z,100814.22
2024-04-11T07:46:43.124Z,100812.53
2024-04-11T07:47:57.106Z,100805.47
2024-04-11T07:49:01.701Z,100791.16
2024-04-11T07:50:03.899Z,100808.84
2024-04-11T07:51:11.166Z,100816.91
2024-04-11T07:52:13.930Z,100802.78
2024-04-11T07:53:20.188Z,100806.16
2024-04-11T07:54:34.018Z,100801.25
2024-04-11T07:55:47.768Z,100804.47
2024-04-11T07:56:49.747Z,100800.44
2024-04-11T07:57:53.104Z,100791.69
2024-04-11T07:58:57.306Z,100792.69
2024-04-11T08:00:01.588Z,100796.22
2024-04-11T08:01:03.581Z,100781.41
2024-04-11T08:02:05.478Z,100791.84
2024-04-11T08:03:08.718Z,100777.38
2024-04-11T08:04:13.344Z,100777.03
2024-04-11T08:05:16.632Z,100779.25
2024-04-11T08:06:21.317Z,100779.25
2024-04-11T08:07:25.091Z,100775.53
2024-04-11T08:08:27.427Z,100775.03
2024-04-11T08:09:42.289Z,100764.09
2024-04-11T08:10:49.607Z,100777.88
2024-04-11T08:11:52.681Z,100782.25
2024-04-11T08:12:55.116Z,100775.19
2024-04-11T08:14:00.169Z,100773.50
2024-04-11T08:15:04.396Z,100781.59
2024-04-11T08:16:09.224Z,100778.03
2024-04-11T08:17:15.804Z,100779.72
2024-04-11T08:18:19.511Z,100777.69
2024-04-11T08:19:21.418Z,100769.81
2024-04-11T08:20:23.400Z,100774.34
2024-04-11T08:21:26.194Z,100775.19
2024-04-11T08:22:29.839Z,100776.19
2024-04-11T08:23:31.933Z,100775.19
2024-04-11T08:24:34.347Z,100772.50
2024-04-11T08:25:36.166Z,100770.97
2024-04-11T08:26:39.223Z,100762.41
2024-04-11T08:27:41.934Z,100769.81
2024-04-11T08:28:44.883Z,100770.63
2024-04-11T08:29:47.033Z,100776.88
2024-04-11T08:30:49.373Z,100767.13
2024-04-11T08:31:52.094Z,100774.19
2024-04-11T08:32:54.141Z,100767.13
2024-04-11T08:34:00.000Z,100763.41
2024-04-11T08:35:02.503Z,100761.53
2024-04-11T08:36:06.113Z,100755.16
2024-04-11T08:37:07.953Z,100764.91
2024-04-11T08:38:13.197Z,100749.28
2024-04-11T08:39:16.157Z,100763.06
2024-04-11T08:40:19.064Z,100741.38
2024-04-11T08:41:22.006Z,100743.38
2024-04-11T08:42:24.248Z,100736.84
2024-04-11T08:43:28.982Z,100742.69
2024-04-11T08:44:31.842Z,100745.91
2024-04-11T08:45:36.221Z,100734.63
2024-04-11T08:46:38.406Z,100733.81
2024-04-11T08:47:40.990Z,100740.50
2024-04-11T08:48:43.152Z,100732.44
2024-04-11T08:49:48.256Z,100719.69
2024-04-11T08:50:54.559Z,100729.75
2024-04-11T08:51:58.769Z,100721.47
2024-04-11T08:53:01.462Z,100729.56
2024-04-11T08:54:07.098Z,100726.03
2024-04-11T08:55:12.591Z,100716.97
2024-04-11T08:56:18.762Z,100722.34
2024-04-11T08:57:20.634Z,100719.47
2024-04-11T08:58:24.972Z,100715.94
2024-04-11T08:59:27.191Z,100715.94
2024-04-11T09:00:30.511Z,100705.34
2024-04-11T09:01:32.355Z,100708.03
2024-04-11T09:02:34.876Z,100707.88
2024-04-11T09:03:37.593Z,100704.50
2024-04-11T09:04:39.502Z,100701.63
2024-04-11T09:05:41.487Z,100695.41
2024-04-11T09:06:43.767Z,100692.06
2024-04-11T09:07:48.133Z,100698.94
2024-04-11T09:08:51.747Z,100688.69
2024-04-11T09:09:53.770Z,100688.00
2024-04-11T09:10:56.414Z,100684.47
2024-04-11T09:11:58.330Z,100682.63
2024-04-11T09:13:00.497Z,100693.41
2024-04-11T09:14:02.345Z,100692.06
2024-04-11T09:15:09.172Z,100693.75
2024-04-11T09:16:11.289Z,100695.06
2024-04-11T09:17:16.765Z,100696.09
2024-04-11T09:18:25.639Z,100689.38
2024-04-11T09:19:27.624Z,100690.50
2024-04-11T09:20:34.301Z,100693.19
2024-04-11T09:21:47.179Z,100698.25
2024-04-11T09:22:55.524Z,100702.63
2024-04-11T09:23:59.707Z,100695.38
2024-04-11T09:25:05.559Z,100694.72
2024-04-11T09:26:07.412Z,100692.53
2024-04-11T09:27:09.533Z,100695.06
2024-04-11T09:28:12.440Z,100694.22
2024-04-11T09:29:15.185Z,100700.44
2024-04-11T09:30:18.574Z,100695.91
2024-04-11T09:31:22.279Z,100676.59
2024-04-11T09:32:26.072Z,100689.69
2024-04-11T09:33:30.784Z,100684.31
2024-04-11T09:34:39.714Z,100688.81
2024-04-11T09:35:48.415Z,100690.34
2024-04-11T09:36:51.672Z,100680.44
2024-04-11T09:38:01.070Z,100686.13
2024-04-11T09:39:13.770Z,100686.66
2024-04-11T09:40:27.443Z,100691.88
2024-04-11T09:41:32.797Z,100686.47
2024-04-11T09:42:37.332Z,100687.66
2024-04-11T09:43:42.598Z,100681.25
2024-04-11T09:44:51.866Z,100691.88
2024-04-11T09:46:05.229Z,100681.09
2024-04-11T09:47:11.170Z,100682.59
2024-04-11T09:48:14.727Z,100680.09
2024-04-11T09:49:18.205Z,100638.63
2024-04-11T09:50:26.116Z,100664.28
2024-04-11T09:51:32.833Z,100675.72
2024-04-11T09:52:43.055Z,100672.00
2024-04-11T09:53:46.160Z,100672.84
2024-04-11T09:54:52.722Z,100664.09
2024-04-11T09:56:01.354Z,100667.63
2024-04-11T09:57:03.557Z,100666.44
2024-04-11T09:58:08.859Z,100661.91
2024-04-11T09:59:11.128Z,100666.97
2024-04-11T10:00:32.347Z,100664.44
2024-04-11T10:01:38.680Z,100664.75
2024-04-11T10:02:41.572Z,100660.38
2024-04-11T10:03:46.865Z,100655.69
2024-04-11T10:04:48.987Z,100658.34
2024-04-11T10:05:52.168Z,100659.56
2024-04-11T10:06:54.573Z,100653.69
2024-04-11T10:08:02.892Z,100656.00
2024-04-11T10:09:19.272Z,100657.69
2024-04-11T10:10:22.452Z,100651.78
2024-04-11T10:11:25.512Z,100647.59
2024-04-11T10:12:29.904Z,100658.34
2024-04-11T10:13:41.664Z,100641.72
2024-04-11T10:14:46.053Z,100643.22
2024-04-11T10:15:50.081Z,100643.88
2024-04-11T10:16:57.474Z,100643.88
2024-04-11T10:18:12.467Z,100644.88
2024-04-11T10:19:23.709Z,100641.84
2024-04-11T10:20:25.963Z,100639.81
2024-04-11T10:21:37.018Z,100645.56
2024-04-11T10:22:48.609Z,100646.06
2024-04-11T10:23:50.649Z,100643.53
2024-04-11T10:25:07.463Z,100631.44
2024-04-11T10:26:16.369Z,100636.47
2024-04-11T10:27:24.041Z,100622.19
2024-04-11T10:28:47.776Z,100631.44
2024-04-11T10:29:51.666Z,100626.19
2024-04-11T10:30:54.045Z,100625.69
2024-04-11T10:32:00.110Z,100626.91
2024-04-11T10:33:06.017Z,100615.63
2024-04-11T10:34:13.960Z,100621.50
2024-04-11T10:35:20.908Z,100617.16
2024-04-11T10:36:23.185Z,100610.91
2024-04-11T10:37:26.606Z,100619.84
2024-04-11T10:38:29.063Z,100606.06
2024-04-11T10:39:37.409Z,100609.44
2024-04-11T10:40:43.348Z,100611.09
2024-04-11T10:41:47.346Z,100616.13
2024-04-11T10:43:12.214Z,100617.97
2024-04-11T10:44:15.160Z,100611.22
2024-04-11T10:45:19.490Z,100605.53
2024-04-11T10:46:25.459Z,100611.56
2024-04-11T10:47:27.654Z,100618.63
2024-04-11T10:48:32.968Z,100605.38
2024-04-11T10:49:44.162Z,100608.88
2024-04-11T10:50:46.252Z,100613.09
2024-04-11T10:51:52.220Z,100603.69
2024-04-11T10:52:58.638Z,100596.44
2024-04-11T10:54:10.772Z,100602.47
2024-04-11T10:55:29.992Z,100593.56
2024-04-11T10:56:32.577Z,100601.75
2024-04-11T10:57:38.417Z,100604.16
2024-04-11T10:58:42.364Z,100587.34
2024-04-11T10:59:52.891Z,100591.72
2024-04-11T11:01:04.307Z,100597.59
2024-04-11T11:02:10.470Z,100579.25
2024-04-11T11:03:15.713Z,100591.19
2024-04-11T11:04:21.629Z,100589.50
2024-04-11T11:05:25.726Z,100585.16
2024-04-11T11:06:31.891Z,100589.66
2024-04-11T11:07:37.369Z,100588.66
2024-04-11T11:08:44.490Z,100575.91
2024-04-11T11:09:50.068Z,100590.53
2024-04-11T11:10:51.947Z,100579.25
2024-04-11T11:11:55.962Z,100588.84
2024-04-11T11:12:59.985Z,100588.00
2024-04-11T11:14:02.700Z,100591.72
2024-04-11T11:15:05.122Z,100579.09
2024-04-11T11:16:09.304Z,100586.97
2024-04-11T11:17:19.170Z,100582.63
2024-04-11T11:18:21.882Z,100585.81
2024-04-11T11:19:24.152Z,100582.25
2024-04-11T11:20:26.199Z,100575.56
2024-04-11T11:21:34.763Z,100577.06
2024-04-11T11:22:41.663Z,100572.69
2024-04-11T11:23:47.278Z,100578.53
2024-04-11T11:24:49.725Z,100587.47
2024-04-11T11:25:52.231Z,100582.25
2024-04-11T11:27:02.681Z,100576.06
2024-04-11T11:28:04.877Z,100584.78
2024-04-11T11:29:13.564Z,100576.88
2024-04-11T11:30:18.036Z,100578.53
2024-04-11T11:31:23.971Z,100582.09
2024-04-11T11:32:27.580Z,100571.84
2024-04-11T11:33:30.339Z,100570.47
2024-04-11T11:34:44.168Z,100567.31
2024-04-11T11:35:46.919Z,100561.06
2024-04-11T11:36:51.401Z,100565.09
2024-04-11T11:37:55.696Z,100555.34
2024-04-11T11:38:57.670Z,100561.56
2024-04-11T11:40:19.488Z,100560.72
2024-04-11T11:41:21.476Z,100544.56
2024-04-11T11:42:33.486Z,100554.16
2024-04-11T11:43:45.307Z,100548.28
2024-04-11T11:45:00.177Z,100546.06
2024-04-11T11:46:20.809Z,100521.94
2024-04-11T11:47:35.049Z,100544.84
2024-04-11T11:48:37.536Z,100544.19
2024-04-11T11:49:40.075Z,100544.56
2024-04-11T11:50:42.378Z,100544.56
2024-04-11T11:51:45.577Z,100543.75
2024-04-11T11:52:55.153Z,100539.88
2024-04-11T11:54:01.855Z,100543.53
2024-04-11T11:55:05.415Z,100540.38
2024-04-11T11:56:09.980Z,100542.41
2024-04-11T11:57:19.235Z,100543.75
2024-04-11T11:58:25.213Z,100543.38
2024-04-11T11:59:32.286Z,100536.03
2024-04-11T12:00:35.501Z,100536.31
2024-04-11T12:01:44.588Z,100532.13
2024-04-11T12:02:57.624Z,100534.66
2024-04-11T12:04:01.616Z,100532.13
2024-04-11T12:05:08.674Z,100537.16
2024-04-11T12:06:13.619Z,100533.44
2024-04-11T12:07:15.569Z,100530.06
2024-04-11T12:08:18.176Z,100510.34
2024-04-11T12:09:32.941Z,100532.97
2024-04-11T12:10:54.431Z,100530.75
2024-04-11T12:12:15.037Z,100527.69
2024-04-11T12:13:23.162Z,100528.34